Time;durP1;ratioP1;P1;durP2;ratioP2;P2;SDS_P1;SDS_P2;PMS_P1;PMS_P2;Temp;Humidity;BMP_temperature;BMP_pressure;BME280_temperature;BME280_humidity;BME280_pressure;Samples;Min_cycle;Max_cycle;Signal;HPM_P1;HPM_P2
2022/02/11 00:02:19;;;;;;;;;;;;;;;;;;5020463;28;19923;-50
2022/02/11 00:07:17;;;;;;;;;;;;;;;;;;5018477;28;19912;-50
2022/02/11 00:09:42;;;;;;;;;;;;;;;;;;5019955;28;19909;-46
2022/02/11 00:12:07;;;;;;;;;;;;;;;;;;5019835;28;19913;-47
2022/02/11 00:14:41;;;;;;;;;;;;;;;;;;5019526;28;19906;-50
2022/02/11 00:17:06;;;;;;;;;;;;;;;;;;5016724;28;19929;-48
2022/02/11 00:19:31;;;;;;;;;;;;;;;;;;5016295;28;19911;-48
2022/02/11 00:21:57;;;;;;;;;;;;;;;;;;5017675;28;19927;-50
2022/02/11 00:24:22;;;;;;;;;;;;;;;;;;5018405;28;19915;-49
2022/02/11 00:27:02;;;;;;;;;;;;;;;;;;5016963;28;19909;-45
2022/02/11 00:32:20;;;;;;;;;;;;;;;;;;5019394;28;20027;-48
2022/02/11 00:34:56;;;;;;;;;;;;;;;;;;5017152;28;20145;-48
2022/02/11 00:37:24;;;;;;;;;;;;;;;;;;5015742;28;20298;-51
2022/02/11 01:02:10;;;;;;;;;;;;;;;;;;5015730;28;19979;-50
2022/02/11 01:04:12;;;;;;;;;;;;;;;;;;5018170;28;20457;-46
2022/02/11 01:06:37;;;;;;;;;;;;;;;;;;5015128;28;19916;-50
2022/02/11 01:09:02;;;;;;;;;;;;;;;;;;5018056;28;19929;-47
2022/02/11 01:11:40;;;;;;;;;;;;;;;;;;5014535;28;19916;-48
2022/02/11 01:14:05;;;;;;;;;;;;;;;;;;5015868;28;19912;-49
2022/02/11 01:17:09;;;;;;;;;;;;;;;;;;5018279;28;19984;-49
2022/02/11 01:27:40;;;;;;;;;;;;;;;;;;5017659;28;19916;-48
2022/02/11 01:30:37;;;;;;;;;;;;;;;;;;5017510;28;19920;-52
2022/02/11 01:33:26;;;;;;;;;;;;;;;;;;5014705;28;20283;-51
2022/02/11 01:44:12;;;;;;;;;;;;;;;;;;5010736;28;20310;-48
2022/02/11 01:57:01;;;;;;;;;;;;;;;;;;5015622;28;19908;-48
2022/02/11 02:11:23;;;;;;;;;;;;;;;;;;5014352;28;19932;-47
2022/02/11 02:26:36;;;;;;;;;;;;;;;;;;5012382;28;19905;-45
2022/02/11 02:50:12;;;;;;;;;;;;;;;;;;5021387;28;19968;-50
2022/02/11 02:58:18;;;;;;;;;;;;;;;;;;5019618;28;20568;-49
2022/02/11 03:14:45;;;;;;;;;;;;;;;;;;5020934;28;20416;-50
2022/02/11 03:52:04;;;;;;;;;;;;;;;;;;5020464;28;19909;-49
2022/02/11 04:22:23;;;;;;;;;;;;;;;;;;5019943;28;19959;-50
2022/02/11 04:55:04;;;;;;;;;;;;;;;;;;5016697;28;20389;-45
2022/02/11 05:00:14;;;;;;;;;;;;;;;;;;5016201;28;19913;-50
2022/02/11 05:02:40;;;;;;;;;;;;;;;;;;5016781;28;19920;-47
2022/02/11 05:05:08;;;;;;;;;;;;;;;;;;5016985;28;19909;-52
2022/02/11 05:07:33;;;;;;;;;;;;;;;;;;5014333;28;20000;-48
2022/02/11 05:09:58;;;;;;;;;;;;;;;;;;5016627;28;19956;-51
2022/02/11 05:12:24;;;;;;;;;;;;;;;;;;5017089;28;20357;-48
2022/02/11 05:14:49;;;;;;;;;;;;;;;;;;5015958;28;19956;-47
2022/02/11 05:17:14;;;;;;;;;;;;;;;;;;5015972;28;20346;-48
2022/02/11 05:19:39;;;;;;;;;;;;;;;;;;5016678;28;19915;-46
2022/02/11 05:22:04;;;;;;;;;;;;;;;;;;5018936;28;19963;-50
2022/02/11 05:24:29;;;;;;;;;;;;;;;;;;5015148;28;20294;-49
2022/02/11 05:26:54;;;;;;;;;;;;;;;;;;5013762;28;19963;-51
2022/02/11 05:29:19;;;;;;;;;;;;;;;;;;5013406;28;19913;-48
2022/02/11 05:31:45;;;;;;;;;;;;;;;;;;5015591;28;20325;-47
2022/02/11 05:34:10;;;;;;;;;;;;;;;;;;5014150;28;19972;-49
2022/02/11 05:36:35;;;;;;;;;;;;;;;;;;5014886;28;20000;-50
2022/02/11 05:39:00;;;;;;;;;;;;;;;;;;5014072;28;19975;-46
2022/02/11 05:41:25;;;;;;;;;;;;;;;;;;5016180;28;19913;-49
2022/02/11 05:43:51;;;;;;;;;;;;;;;;;;5014554;28;19960;-45
2022/02/11 05:46:16;;;;;;;;;;;;;;;;;;5014089;28;20372;-46
2022/02/11 05:48:43;;;;;;;;;;;;;;;;;;5016559;28;19924;-46
2022/02/11 05:51:08;;;;;;;;;;;;;;;;;;5014561;28;20302;-46
2022/02/11 05:53:33;;;;;;;;;;;;;;;;;;5014852;28;19909;-48
2022/02/11 05:55:58;;;;;;;;;;;;;;;;;;5015981;28;20430;-46
2022/02/11 05:58:23;;;;;;;;;;;;;;;;;;5016759;28;20259;-49
2022/02/11 06:00:49;;;;;;;;;;;;;;;;;;5014468;28;19961;-51
2022/02/11 06:03:14;;;;;;;;;;;;;;;;;;5014243;28;19909;-50
2022/02/11 06:05:39;;;;;;;;;;;;;;;;;;5015144;28;20195;-48
2022/02/11 06:08:04;;;;;;;;;;;;;;;;;;5017432;28;19906;-49
2022/02/11 06:10:29;;;;;;;;;;;;;;;;;;5015388;28;19909;-52
2022/02/11 06:12:55;;;;;;;;;;;;;;;;;;5015880;28;19947;-48
2022/02/11 06:15:20;;;;;;;;;;;;;;;;;;5018177;28;19940;-47
2022/02/11 06:17:45;;;;;;;;;;;;;;;;;;5013572;28;19956;-51
2022/02/11 06:20:10;;;;;;;;;;;;;;;;;;5016454;28;19916;-51
2022/02/11 06:22:35;;;;;;;;;;;;;;;;;;5014483;28;19916;-51
2022/02/11 06:25:00;;;;;;;;;;;;;;;;;;5015933;28;20342;-46
2022/02/11 06:27:26;;;;;;;;;;;;;;;;;;5017121;28;19909;-46
2022/02/11 06:29:51;;;;;;;;;;;;;;;;;;5016545;28;19908;-48
2022/02/11 06:32:16;;;;;;;;;;;;;;;;;;5015175;28;19943;-48
2022/02/11 06:34:41;;;;;;;;;;;;;;;;;;5017925;28;20531;-45
2022/02/11 06:37:06;;;;;;;;;;;;;;;;;;5016635;28;19905;-47
2022/02/11 06:39:31;;;;;;;;;;;;;;;;;;5012459;28;19909;-48
2022/02/11 06:41:57;;;;;;;;;;;;;;;;;;5013297;28;19920;-50
2022/02/11 06:44:22;;;;;;;;;;;;;;;;;;5014311;28;20016;-46
2022/02/11 06:46:48;;;;;;;;;;;;;;;;;;5014208;28;19909;-49
2022/02/11 06:49:13;;;;;;;;;;;;;;;;;;5014862;28;20346;-48
2022/02/11 06:51:38;;;;;;;;;;;;;;;;;;5010090;28;19928;-45
2022/02/11 06:54:03;;;;;;;;;;;;;;;;;;5015537;28;19990;-50
2022/02/11 06:56:28;;;;;;;;;;;;;;;;;;5016785;28;19952;-49
2022/02/11 06:58:55;;;;;;;;;;;;;;;;;;5014169;28;19906;-48
2022/02/11 07:01:20;;;;;;;;;;;;;;;;;;5015486;28;20212;-46
2022/02/11 07:03:45;;;;;;;;;;;;;;;;;;5015675;28;20401;-48
2022/02/11 07:06:10;;;;;;;;;;;;;;;;;;5014097;28;19963;-48
2022/02/11 07:08:35;;;;;;;;;;;;;;;;;;5013253;28;19913;-48
2022/02/11 07:11:01;;;;;;;;;;;;;;;;;;5019271;28;19910;-47
2022/02/11 07:13:26;;;;;;;;;;;;;;;;;;5018078;28;20224;-47
2022/02/11 07:15:51;;;;;;;;;;;;;;;;;;5012412;28;20024;-46
2022/02/11 07:18:16;;;;;;;;;;;;;;;;;;5012989;28;19913;-47
2022/02/11 07:20:41;;;;;;;;;;;;;;;;;;5014409;28;19908;-51
2022/02/11 07:23:07;;;;;;;;;;;;;;;;;;5013196;28;20500;-48
2022/02/11 07:25:32;;;;;;;;;;;;;;;;;;5011387;28;20437;-45
2022/02/11 07:27:57;;;;;;;;;;;;;;;;;;5011688;28;19913;-47
2022/02/11 07:30:22;;;;;;;;;;;;;;;;;;5011504;28;19909;-47
2022/02/11 07:32:48;;;;;;;;;;;;;;;;;;5016230;28;19905;-49
2022/02/11 07:35:13;;;;;;;;;;;;;;;;;;5014952;28;20453;-45
2022/02/11 07:37:38;;;;;;;;;;;;;;;;;;5017731;28;19909;-49
2022/02/11 07:40:03;;;;;;;;;;;;;;;;;;5016493;28;19966;-49
2022/02/11 07:42:33;;;;;;;;;;;;;;;;;;5017282;28;19940;-47
2022/02/11 07:44:58;;;;;;;;;;;;;;;;;;5016986;28;20613;-49
2022/02/11 07:47:23;;;;;;;;;;;;;;;;;;5016359;28;19909;-48
2022/02/11 07:49:48;;;;;;;;;;;;;;;;;;5016744;28;19917;-46
2022/02/11 07:52:14;;;;;;;;;;;;;;;;;;5014493;28;19975;-45
2022/02/11 07:54:39;;;;;;;;;;;;;;;;;;5015156;28;20499;-49
2022/02/11 07:57:04;;;;;;;;;;;;;;;;;;5016089;28;19909;-45
2022/02/11 07:59:29;;;;;;;;;;;;;;;;;;5015822;28;20453;-45
2022/02/11 08:01:55;;;;;;;;;;;;;;;;;;5011693;28;19914;-46
2022/02/11 08:04:20;;;;;;;;;;;;;;;;;;5017092;28;19948;-44
2022/02/11 08:06:47;;;;;;;;;;;;;;;;;;5013477;28;19913;-50
2022/02/11 08:09:12;;;;;;;;;;;;;;;;;;5015226;28;20649;-44
2022/02/11 08:11:37;;;;;;;;;;;;;;;;;;5013595;28;19928;-48
2022/02/11 08:14:03;;;;;;;;;;;;;;;;;;5016572;28;19990;-46
2022/02/11 08:16:28;;;;;;;;;;;;;;;;;;5013704;28;19967;-40
2022/02/11 08:18:53;;;;;;;;;;;;;;;;;;5012871;28;19912;-39
2022/02/11 08:21:19;;;;;;;;;;;;;;;;;;5013000;28;20027;-41
2022/02/11 08:23:44;;;;;;;;;;;;;;;;;;5013128;28;19909;-40
2022/02/11 08:26:09;;;;;;;;;;;;;;;;;;5013360;28;19917;-39
2022/02/11 08:28:36;;;;;;;;;;;;;;;;;;5012481;28;20305;-38
2022/02/11 08:31:01;;;;;;;;;;;;;;;;;;5016149;28;19952;-41
2022/02/11 08:33:26;;;;;;;;;;;;;;;;;;5011567;28;20032;-40
2022/02/11 08:35:51;;;;;;;;;;;;;;;;;;5016319;28;19914;-39
2022/02/11 08:38:17;;;;;;;;;;;;;;;;;;5014265;28;19910;-38
2022/02/11 08:40:42;;;;;;;;;;;;;;;;;;5014151;28;20250;-37
2022/02/11 08:43:07;;;;;;;;;;;;;;;;;;5013192;28;20425;-43
2022/02/11 08:45:36;;;;;;;;;;;;;;;;;;5015894;28;20083;-40
2022/02/11 08:48:02;;;;;;;;;;;;;;;;;;5014365;28;19909;-39
2022/02/11 08:50:27;;;;;;;;;;;;;;;;;;5014493;28;19971;-37
2022/02/11 08:52:52;;;;;;;;;;;;;;;;;;5015279;28;19912;-36
2022/02/11 08:55:22;;;;;;;;;;;;;;;;;;5014231;28;20656;-39
2022/02/11 08:57:47;;;;;;;;;;;;;;;;;;5018839;28;20323;-39
2022/02/11 09:00:13;;;;;;;;;;;;;;;;;;5014271;28;19912;-39
2022/02/11 09:02:38;;;;;;;;;;;;;;;;;;5015461;28;19939;-40
2022/02/11 09:05:03;;;;;;;;;;;;;;;;;;5021334;28;19909;-39
2022/02/11 09:07:29;;;;;;;;;;;;;;;;;;5017864;28;19941;-40
2022/02/11 09:09:54;;;;;;;;;;;;;;;;;;5017705;28;19905;-40
2022/02/11 09:12:19;;;;;;;;;;;;;;;;;;5016917;28;19972;-40
2022/02/11 09:14:44;;;;;;;;;;;;;;;;;;5019541;28;19916;-41
2022/02/11 09:17:09;;;;;;;;;;;;;;;;;;5021290;28;19905;-41
2022/02/11 09:19:34;;;;;;;;;;;;;;;;;;5016949;28;20582;-39
2022/02/11 09:22:00;;;;;;;;;;;;;;;;;;5018389;28;19913;-46
2022/02/11 09:24:25;;;;;;;;;;;;;;;;;;5018746;28;20286;-42
2022/02/11 09:26:50;;;;;;;;;;;;;;;;;;5018027;28;20260;-38
2022/02/11 09:29:16;;;;;;;;;;;;;;;;;;5018184;28;19933;-41
2022/02/11 09:31:42;;;;;;;;;;;;;;;;;;5016535;28;19909;-41
2022/02/11 09:34:11;;;;;;;;;;;;;;;;;;5018433;28;19912;-40
2022/02/11 09:36:39;;;;;;;;;;;;;;;;;;5016029;28;19936;-41
2022/02/11 09:39:04;;;;;;;;;;;;;;;;;;5018761;28;20012;-42
2022/02/11 09:41:29;;;;;;;;;;;;;;;;;;5015017;28;19917;-40
2022/02/11 09:43:55;;;;;;;;;;;;;;;;;;5019807;28;20004;-41
2022/02/11 09:46:20;;;;;;;;;;;;;;;;;;5016370;28;19949;-41
2022/02/11 09:48:45;;;;;;;;;;;;;;;;;;5016644;28;20062;-39
2022/02/11 09:51:11;;;;;;;;;;;;;;;;;;5016131;28;19913;-41
2022/02/11 09:53:36;;;;;;;;;;;;;;;;;;5017038;28;19913;-41
2022/02/11 09:56:03;;;;;;;;;;;;;;;;;;5018842;28;19936;-40
2022/02/11 09:58:29;;;;;;;;;;;;;;;;;;5017282;28;19950;-39
2022/02/11 10:00:55;;;;;;;;;;;;;;;;;;5020942;28;19909;-40
2022/02/11 10:03:20;;;;;;;;;;;;;;;;;;5015635;28;20598;-38
2022/02/11 10:05:48;;;;;;;;;;;;;;;;;;5017493;28;19920;-38
2022/02/11 10:08:13;;;;;;;;;;;;;;;;;;5018708;28;19909;-39
2022/02/11 10:10:38;;;;;;;;;;;;;;;;;;5016283;28;21222;-38
2022/02/11 10:13:03;;;;;;;;;;;;;;;;;;5015417;28;20451;-40
2022/02/11 10:15:29;;;;;;;;;;;;;;;;;;5014340;28;20004;-38
2022/02/11 10:17:54;;;;;;;;;;;;;;;;;;5020784;28;20358;-39
2022/02/11 10:20:19;;;;;;;;;;;;;;;;;;5013863;28;19909;-38
2022/02/11 10:22:44;;;;;;;;;;;;;;;;;;5013570;28;19991;-39
2022/02/11 10:25:09;;;;;;;;;;;;;;;;;;5015181;28;20403;-38
2022/02/11 10:27:34;;;;;;;;;;;;;;;;;;5017248;28;19909;-38
2022/02/11 10:29:59;;;;;;;;;;;;;;;;;;5017610;28;19920;-38
2022/02/11 10:32:25;;;;;;;;;;;;;;;;;;5014455;28;20432;-40
2022/02/11 10:34:50;;;;;;;;;;;;;;;;;;5013866;28;19905;-39
2022/02/11 10:37:15;;;;;;;;;;;;;;;;;;5015263;28;20286;-41
2022/02/11 10:39:40;;;;;;;;;;;;;;;;;;5017320;28;19924;-38
2022/02/11 10:42:07;;;;;;;;;;;;;;;;;;5014320;28;20357;-40
2022/02/11 10:44:34;;;;;;;;;;;;;;;;;;5016429;28;19928;-40
2022/02/11 10:47:00;;;;;;;;;;;;;;;;;;5016922;28;20408;-40
2022/02/11 10:49:26;;;;;;;;;;;;;;;;;;5014917;28;20404;-43
2022/02/11 10:51:51;;;;;;;;;;;;;;;;;;5014412;28;19909;-39
2022/02/11 10:54:16;;;;;;;;;;;;;;;;;;5013092;28;20293;-42
2022/02/11 10:56:41;;;;;;;;;;;;;;;;;;5016227;28;19995;-39
2022/02/11 10:59:06;;;;;;;;;;;;;;;;;;5015311;28;19937;-38
2022/02/11 11:01:32;;;;;;;;;;;;;;;;;;5017421;28;19905;-39
2022/02/11 11:03:57;;;;;;;;;;;;;;;;;;5016030;28;19923;-38
2022/02/11 11:06:22;;;;;;;;;;;;;;;;;;5021389;28;19912;-38
2022/02/11 11:08:48;;;;;;;;;;;;;;;;;;5021207;28;19917;-38
2022/02/11 11:11:13;;;;;;;;;;;;;;;;;;5020430;28;20450;-39
2022/02/11 11:13:38;;;;;;;;;;;;;;;;;;5016880;28;19931;-42
2022/02/11 11:16:03;;;;;;;;;;;;;;;;;;5019622;28;19905;-38
2022/02/11 11:18:30;;;;;;;;;;;;;;;;;;5018372;28;19909;-42
2022/02/11 11:20:56;;;;;;;;;;;;;;;;;;5021334;28;19936;-40
2022/02/11 11:23:21;;;;;;;;;;;;;;;;;;5019259;28;19917;-39
2022/02/11 11:25:46;;;;;;;;;;;;;;;;;;5018267;28;19991;-39
2022/02/11 11:28:11;;;;;;;;;;;;;;;;;;5020130;28;20351;-39
2022/02/11 11:30:37;;;;;;;;;;;;;;;;;;5021936;28;19959;-39
2022/02/11 11:33:02;;;;;;;;;;;;;;;;;;5020528;28;19948;-39
2022/02/11 11:35:28;;;;;;;;;;;;;;;;;;5019742;28;19909;-38
2022/02/11 11:37:53;;;;;;;;;;;;;;;;;;5018997;28;20558;-40
2022/02/11 11:40:18;;;;;;;;;;;;;;;;;;5021401;28;19962;-41
2022/02/11 11:42:43;;;;;;;;;;;;;;;;;;5020963;28;19909;-42
2022/02/11 11:45:08;;;;;;;;;;;;;;;;;;5019745;28;20306;-41
2022/02/11 11:47:37;;;;;;;;;;;;;;;;;;5019127;28;19959;-44
2022/02/11 11:50:06;;;;;;;;;;;;;;;;;;5017490;28;19967;-39
2022/02/11 11:52:31;;;;;;;;;;;;;;;;;;5018351;28;20003;-42
2022/02/11 11:54:56;;;;;;;;;;;;;;;;;;5016847;28;20489;-39
2022/02/11 11:57:21;;;;;;;;;;;;;;;;;;5019329;28;19905;-42
2022/02/11 11:59:46;;;;;;;;;;;;;;;;;;5018554;28;19909;-42
2022/02/11 12:02:11;;;;;;;;;;;;;;;;;;5018751;28;20326;-39
2022/02/11 12:04:37;;;;;;;;;;;;;;;;;;5023145;28;20429;-39
2022/02/11 12:07:02;;;;;;;;;;;;;;;;;;5017770;28;19905;-40
2022/02/11 12:09:27;;;;;;;;;;;;;;;;;;5018964;28;19905;-39
2022/02/11 12:11:52;;;;;;;;;;;;;;;;;;5016126;28;19913;-40
2022/02/11 12:14:17;;;;;;;;;;;;;;;;;;5016294;28;19917;-40
2022/02/11 12:16:43;;;;;;;;;;;;;;;;;;5017035;28;19909;-39
2022/02/11 12:19:08;;;;;;;;;;;;;;;;;;5020924;28;19913;-42
2022/02/11 12:21:34;;;;;;;;;;;;;;;;;;5018539;28;19914;-40
2022/02/11 12:29:27;;;;;;;;;;;;;;;;;;5020301;28;19987;-43
2022/02/11 12:31:52;;;;;;;;;;;;;;;;;;5015329;28;19910;-41
2022/02/11 12:34:19;;;;;;;;;;;;;;;;;;5018321;28;19912;-39
2022/02/11 12:36:44;;;;;;;;;;;;;;;;;;5019446;28;19909;-40
2022/02/11 12:39:09;;;;;;;;;;;;;;;;;;5017436;28;20345;-40
2022/02/11 12:41:34;;;;;;;;;;;;;;;;;;5016824;28;19910;-40
2022/02/11 12:44:00;;;;;;;;;;;;;;;;;;5019291;28;20522;-41
2022/02/11 12:46:25;;;;;;;;;;;;;;;;;;5015818;28;19920;-40
2022/02/11 12:48:50;;;;;;;;;;;;;;;;;;5017349;28;20023;-41
2022/02/11 12:51:17;;;;;;;;;;;;;;;;;;5015921;28;19913;-42
2022/02/11 12:53:42;;;;;;;;;;;;;;;;;;5017312;28;19916;-40
2022/02/11 12:56:07;;;;;;;;;;;;;;;;;;5017397;28;20278;-40
2022/02/11 12:58:34;;;;;;;;;;;;;;;;;;5016887;28;19905;-39
2022/02/11 13:00:59;;;;;;;;;;;;;;;;;;5016889;28;19920;-43
2022/02/11 13:03:26;;;;;;;;;;;;;;;;;;5018259;28;19909;-45
2022/02/11 13:05:52;;;;;;;;;;;;;;;;;;5018001;28;19909;-40
2022/02/11 13:08:17;;;;;;;;;;;;;;;;;;5015294;28;19909;-40
2022/02/11 13:10:42;;;;;;;;;;;;;;;;;;5020760;28;19905;-40
2022/02/11 13:13:08;;;;;;;;;;;;;;;;;;5015740;28;19913;-45
2022/02/11 13:15:33;;;;;;;;;;;;;;;;;;5017752;28;19967;-41
2022/02/11 13:17:58;;;;;;;;;;;;;;;;;;5017195;28;20390;-42
2022/02/11 13:20:27;;;;;;;;;;;;;;;;;;5016770;28;19920;-43
2022/02/11 13:22:52;;;;;;;;;;;;;;;;;;5016007;28;19944;-43
2022/02/11 13:25:18;;;;;;;;;;;;;;;;;;5014482;28;20371;-41
2022/02/11 13:27:43;;;;;;;;;;;;;;;;;;5017085;28;19954;-45
2022/02/11 13:30:08;;;;;;;;;;;;;;;;;;5016893;28;20397;-42
2022/02/11 13:32:34;;;;;;;;;;;;;;;;;;5016723;28;20386;-44
2022/02/11 13:34:59;;;;;;;;;;;;;;;;;;5018012;28;19909;-41
2022/02/11 13:37:24;;;;;;;;;;;;;;;;;;5014910;28;19932;-46
2022/02/11 13:39:49;;;;;;;;;;;;;;;;;;5016143;28;19999;-41
2022/02/11 13:42:14;;;;;;;;;;;;;;;;;;5014733;28;19948;-43
2022/02/11 13:44:40;;;;;;;;;;;;;;;;;;5018925;28;19917;-42
2022/02/11 13:47:05;;;;;;;;;;;;;;;;;;5014847;28;20543;-43
2022/02/11 13:49:30;;;;;;;;;;;;;;;;;;5015548;28;20024;-46
2022/02/11 13:53:01;;;;;;;;;;;;;;;;;;5013583;28;19952;-42
2022/02/11 13:54:40;;;;;;;;;;;;;;;;;;5015782;28;19972;-42
2022/02/11 13:57:05;;;;;;;;;;;;;;;;;;5017843;28;20020;-41
2022/02/11 13:59:30;;;;;;;;;;;;;;;;;;5016643;28;19975;-42
2022/02/11 14:01:57;;;;;;;;;;;;;;;;;;5016313;28;19920;-44
2022/02/11 14:04:22;;;;;;;;;;;;;;;;;;5015872;28;19919;-47
2022/02/11 14:06:47;;;;;;;;;;;;;;;;;;5015819;28;19973;-41
2022/02/11 14:09:12;;;;;;;;;;;;;;;;;;5017955;28;20293;-41
2022/02/11 14:11:38;;;;;;;;;;;;;;;;;;5018048;28;19911;-45
2022/02/11 14:14:03;;;;;;;;;;;;;;;;;;5017498;28;19940;-41
2022/02/11 14:16:28;;;;;;;;;;;;;;;;;;5015280;28;20373;-43
2022/02/11 14:18:53;;;;;;;;;;;;;;;;;;5015612;28;19917;-41
2022/02/11 14:21:18;;;;;;;;;;;;;;;;;;5015465;28;20354;-44
2022/02/11 14:23:44;;;;;;;;;;;;;;;;;;5016733;28;19913;-46
2022/02/11 14:26:09;;;;;;;;;;;;;;;;;;5016482;28;19996;-47
2022/02/11 14:28:34;;;;;;;;;;;;;;;;;;5014000;28;19906;-39
2022/02/11 14:30:59;;;;;;;;;;;;;;;;;;5015854;28;19913;-43
2022/02/11 14:33:25;;;;;;;;;;;;;;;;;;5015238;28;20425;-43
2022/02/11 14:35:50;;;;;;;;;;;;;;;;;;5019226;28;19946;-42
2022/02/11 14:38:15;;;;;;;;;;;;;;;;;;5015204;28;20351;-43
2022/02/11 14:41:46;;;;;;;;;;;;;;;;;;5018074;28;19931;-39
2022/02/11 14:43:28;;;;;;;;;;;;;;;;;;5014446;28;19947;-41
2022/02/11 14:45:54;;;;;;;;;;;;;;;;;;5013790;28;19913;-40
2022/02/11 14:48:19;;;;;;;;;;;;;;;;;;5018418;28;20398;-39
2022/02/11 14:50:45;;;;;;;;;;;;;;;;;;5017351;28;19921;-40
2022/02/11 14:53:10;;;;;;;;;;;;;;;;;;5018882;28;20332;-40
2022/02/11 14:55:35;;;;;;;;;;;;;;;;;;5017549;28;20043;-41
2022/02/11 14:58:01;;;;;;;;;;;;;;;;;;5017026;28;19917;-43
2022/02/11 15:00:26;;;;;;;;;;;;;;;;;;5017586;28;19909;-40
2022/02/11 15:02:51;;;;;;;;;;;;;;;;;;5017745;28;19995;-44
2022/02/11 15:05:16;;;;;;;;;;;;;;;;;;5017151;28;20499;-41
2022/02/11 15:07:44;;;;;;;;;;;;;;;;;;5015932;28;19906;-41
2022/02/11 15:10:09;;;;;;;;;;;;;;;;;;5014371;28;19955;-41
2022/02/11 15:12:35;;;;;;;;;;;;;;;;;;5015607;28;19995;-43
2022/02/11 15:15:00;;;;;;;;;;;;;;;;;;5017886;28;20363;-42
2022/02/11 15:17:25;;;;;;;;;;;;;;;;;;5016092;28;19951;-42
2022/02/11 15:19:50;;;;;;;;;;;;;;;;;;5017535;28;20428;-40
2022/02/11 15:22:15;;;;;;;;;;;;;;;;;;5015991;28;19964;-42
2022/02/11 15:24:47;;;;;;;;;;;;;;;;;;5016166;28;20874;-43
2022/02/11 15:27:12;;;;;;;;;;;;;;;;;;5016813;28;20474;-45
2022/02/11 15:29:37;;;;;;;;;;;;;;;;;;5016461;28;19955;-47
2022/02/11 15:32:02;;;;;;;;;;;;;;;;;;5013953;28;19945;-44
2022/02/11 15:34:27;;;;;;;;;;;;;;;;;;5016981;28;20007;-43
2022/02/11 15:36:52;;;;;;;;;;;;;;;;;;5015973;28;19909;-42
2022/02/11 15:39:18;;;;;;;;;;;;;;;;;;5015261;28;20370;-44
2022/02/11 15:41:43;;;;;;;;;;;;;;;;;;5014097;28;19916;-47
2022/02/11 15:44:12;;;;;;;;;;;;;;;;;;5014370;28;19909;-44
2022/02/11 15:46:37;;;;;;;;;;;;;;;;;;5017490;28;19920;-41
2022/02/11 15:49:02;;;;;;;;;;;;;;;;;;5015505;28;19921;-44
2022/02/11 15:51:28;;;;;;;;;;;;;;;;;;5013284;28;19974;-41
2022/02/11 15:53:53;;;;;;;;;;;;;;;;;;5020281;28;19931;-42
2022/02/11 15:56:18;;;;;;;;;;;;;;;;;;5019047;28;19913;-41
2022/02/11 15:58:43;;;;;;;;;;;;;;;;;;5017385;28;19974;-46
2022/02/11 16:01:08;;;;;;;;;;;;;;;;;;5020455;28;20395;-41
2022/02/11 16:03:33;;;;;;;;;;;;;;;;;;5018559;28;19917;-45
2022/02/11 16:05:59;;;;;;;;;;;;;;;;;;5017648;28;20305;-46
2022/02/11 16:08:24;;;;;;;;;;;;;;;;;;5016596;28;19954;-44
2022/02/11 16:10:49;;;;;;;;;;;;;;;;;;5019369;28;20354;-42
2022/02/11 16:13:14;;;;;;;;;;;;;;;;;;5019494;28;19912;-42
2022/02/11 16:15:41;;;;;;;;;;;;;;;;;;5019794;28;19909;-42
2022/02/11 16:18:14;;;;;;;;;;;;;;;;;;5018455;28;20003;-44
2022/02/11 16:20:39;;;;;;;;;;;;;;;;;;5019518;28;19913;-42
2022/02/11 16:23:04;;;;;;;;;;;;;;;;;;5017674;28;19914;-44
2022/02/11 16:25:30;;;;;;;;;;;;;;;;;;5021074;28;19915;-42
2022/02/11 16:27:56;;;;;;;;;;;;;;;;;;5019965;28;19955;-44
2022/02/11 16:30:21;;;;;;;;;;;;;;;;;;5020544;28;19936;-42
2022/02/11 16:32:46;;;;;;;;;;;;;;;;;;5018445;28;20373;-42
2022/02/11 16:35:11;;;;;;;;;;;;;;;;;;5019600;28;19913;-41
2022/02/11 16:37:36;;;;;;;;;;;;;;;;;;5020172;28;19996;-42
2022/02/11 16:40:01;;;;;;;;;;;;;;;;;;5018716;28;19913;-42
2022/02/11 16:42:28;;;;;;;;;;;;;;;;;;5017492;28;19916;-43
2022/02/11 16:44:54;;;;;;;;;;;;;;;;;;5013514;28;19920;-40
2022/02/11 16:47:19;;;;;;;;;;;;;;;;;;5015491;28;19909;-42
2022/02/11 16:49:44;;;;;;;;;;;;;;;;;;5020287;28;19974;-45
2022/02/11 16:52:10;;;;;;;;;;;;;;;;;;5018891;28;19996;-41
2022/02/11 16:54:36;;;;;;;;;;;;;;;;;;5016316;28;19932;-41
2022/02/11 16:57:01;;;;;;;;;;;;;;;;;;5018548;28;19929;-43
2022/02/11 16:59:27;;;;;;;;;;;;;;;;;;5018102;28;19916;-42
2022/02/11 17:01:52;;;;;;;;;;;;;;;;;;5017344;28;20370;-42
2022/02/11 17:04:17;;;;;;;;;;;;;;;;;;5016451;28;19967;-43
2022/02/11 17:06:42;;;;;;;;;;;;;;;;;;5017873;28;19912;-42
2022/02/11 17:09:07;;;;;;;;;;;;;;;;;;5016352;28;19912;-40
2022/02/11 17:11:34;;;;;;;;;;;;;;;;;;5016179;28;20395;-41
2022/02/11 17:14:00;;;;;;;;;;;;;;;;;;5018774;28;19948;-41
2022/02/11 17:16:25;;;;;;;;;;;;;;;;;;5018062;28;19936;-42
2022/02/11 17:18:50;;;;;;;;;;;;;;;;;;5016444;28;19914;-42
2022/02/11 17:21:15;;;;;;;;;;;;;;;;;;5017542;28;20052;-40
2022/02/11 17:23:40;;;;;;;;;;;;;;;;;;5018115;28;19918;-44
2022/02/11 17:26:05;;;;;;;;;;;;;;;;;;5014922;28;19915;-42
2022/02/11 17:28:30;;;;;;;;;;;;;;;;;;5018297;28;19909;-41
2022/02/11 17:30:56;;;;;;;;;;;;;;;;;;5014247;28;19905;-41
2022/02/11 17:33:21;;;;;;;;;;;;;;;;;;5016628;28;19931;-41
2022/02/11 17:35:46;;;;;;;;;;;;;;;;;;5016747;28;20314;-40
2022/02/11 17:38:11;;;;;;;;;;;;;;;;;;5019820;28;19981;-45
2022/02/11 17:40:36;;;;;;;;;;;;;;;;;;5017350;28;19909;-41
2022/02/11 17:43:02;;;;;;;;;;;;;;;;;;5013807;28;20080;-43
2022/02/11 17:45:27;;;;;;;;;;;;;;;;;;5015622;28;19909;-45
2022/02/11 17:47:52;;;;;;;;;;;;;;;;;;5016625;28;19912;-45
2022/02/11 17:50:17;;;;;;;;;;;;;;;;;;5013386;28;19947;-44
2022/02/11 17:52:42;;;;;;;;;;;;;;;;;;5011492;28;20465;-45
2022/02/11 17:55:08;;;;;;;;;;;;;;;;;;5018362;28;19913;-42
2022/02/11 17:57:33;;;;;;;;;;;;;;;;;;5015791;28;20410;-46
2022/02/11 17:59:58;;;;;;;;;;;;;;;;;;5014345;28;20020;-47
2022/02/11 18:02:23;;;;;;;;;;;;;;;;;;5014715;28;19921;-47
2022/02/11 18:04:48;;;;;;;;;;;;;;;;;;5014040;28;19905;-42
2022/02/11 18:07:17;;;;;;;;;;;;;;;;;;5011427;28;19916;-43
2022/02/11 18:09:42;;;;;;;;;;;;;;;;;;5010924;28;20354;-43
2022/02/11 18:12:07;;;;;;;;;;;;;;;;;;5010329;28;19913;-40
2022/02/11 18:14:33;;;;;;;;;;;;;;;;;;5010216;28;20320;-43
2022/02/11 18:16:58;;;;;;;;;;;;;;;;;;5013969;28;19920;-42
2022/02/11 18:19:23;;;;;;;;;;;;;;;;;;5013467;28;20546;-41
2022/02/11 18:21:48;;;;;;;;;;;;;;;;;;5011936;28;19910;-40
2022/02/11 18:24:13;;;;;;;;;;;;;;;;;;5013753;28;19991;-42
2022/02/11 18:26:38;;;;;;;;;;;;;;;;;;5012436;28;19912;-50
2022/02/11 18:29:04;;;;;;;;;;;;;;;;;;5013365;28;20019;-46
2022/02/11 18:31:30;;;;;;;;;;;;;;;;;;5012212;28;19916;-48
2022/02/11 18:33:55;;;;;;;;;;;;;;;;;;5012134;28;19913;-46
2022/02/11 18:36:21;;;;;;;;;;;;;;;;;;5011987;28;19979;-48
2022/02/11 18:38:46;;;;;;;;;;;;;;;;;;5013803;28;19909;-51
2022/02/11 18:41:11;;;;;;;;;;;;;;;;;;5014020;28;20712;-48
2022/02/11 18:43:36;;;;;;;;;;;;;;;;;;5011437;28;19921;-49
2022/02/11 18:46:02;;;;;;;;;;;;;;;;;;5011379;28;19909;-47
2022/02/11 18:48:31;;;;;;;;;;;;;;;;;;5013111;28;19917;-46
2022/02/11 18:50:56;;;;;;;;;;;;;;;;;;5014509;28;19917;-48
2022/02/11 18:53:22;;;;;;;;;;;;;;;;;;5011081;28;20302;-45
2022/02/11 18:55:47;;;;;;;;;;;;;;;;;;5011127;28;19928;-50
2022/02/11 18:58:12;;;;;;;;;;;;;;;;;;5013209;28;20358;-48
2022/02/11 19:00:38;;;;;;;;;;;;;;;;;;5013667;28;19968;-46
2022/02/11 19:03:03;;;;;;;;;;;;;;;;;;5015114;28;19913;-48
2022/02/11 19:05:28;;;;;;;;;;;;;;;;;;5011529;28;19919;-48
2022/02/11 19:07:53;;;;;;;;;;;;;;;;;;5013715;28;20012;-48
2022/02/11 19:10:18;;;;;;;;;;;;;;;;;;5010531;28;19913;-48
2022/02/11 19:12:44;;;;;;;;;;;;;;;;;;5016903;28;20024;-45
2022/02/11 19:15:09;;;;;;;;;;;;;;;;;;5012324;28;19936;-47
2022/02/11 19:17:34;;;;;;;;;;;;;;;;;;5012673;28;19909;-46
2022/02/11 19:19:59;;;;;;;;;;;;;;;;;;5014089;28;19917;-47
2022/02/11 19:22:24;;;;;;;;;;;;;;;;;;5011890;28;20520;-47
2022/02/11 19:24:50;;;;;;;;;;;;;;;;;;5012812;28;19945;-41
2022/02/11 19:27:15;;;;;;;;;;;;;;;;;;5017323;28;19909;-46
2022/02/11 19:29:40;;;;;;;;;;;;;;;;;;5016096;28;20329;-49
2022/02/11 19:32:05;;;;;;;;;;;;;;;;;;5014968;28;19966;-48
2022/02/11 19:34:32;;;;;;;;;;;;;;;;;;5013514;28;19992;-48
2022/02/11 19:36:57;;;;;;;;;;;;;;;;;;5014234;28;19909;-44
2022/02/11 19:39:24;;;;;;;;;;;;;;;;;;5013877;28;20418;-44
2022/02/11 19:41:49;;;;;;;;;;;;;;;;;;5015202;28;20533;-47
2022/02/11 19:44:14;;;;;;;;;;;;;;;;;;5016727;28;19915;-45
2022/02/11 19:46:39;;;;;;;;;;;;;;;;;;5017995;28;20186;-46
2022/02/11 19:49:05;;;;;;;;;;;;;;;;;;5018003;28;19956;-45
2022/02/11 19:51:30;;;;;;;;;;;;;;;;;;5013531;28;19921;-46
2022/02/11 19:53:55;;;;;;;;;;;;;;;;;;5011840;28;19917;-49
2022/02/11 19:56:20;;;;;;;;;;;;;;;;;;5014393;28;19920;-44
2022/02/11 19:58:46;;;;;;;;;;;;;;;;;;5016057;28;19916;-47
2022/02/11 20:01:11;;;;;;;;;;;;;;;;;;5015001;28;19915;-44
2022/02/11 20:03:37;;;;;;;;;;;;;;;;;;5012721;28;19924;-44
2022/02/11 20:06:03;;;;;;;;;;;;;;;;;;5015827;28;19924;-46
2022/02/11 20:08:29;;;;;;;;;;;;;;;;;;5014884;28;19913;-47
2022/02/11 20:10:54;;;;;;;;;;;;;;;;;;5016317;28;19955;-46
2022/02/11 20:13:19;;;;;;;;;;;;;;;;;;5014475;28;19975;-46
2022/02/11 20:15:44;;;;;;;;;;;;;;;;;;5015880;28;19909;-48
2022/02/11 20:18:10;;;;;;;;;;;;;;;;;;5014510;28;19949;-48